Time;durP1;ratioP1;P1;durP2;ratioP2;P2;SDS_P1;SDS_P2;PMS_P1;PMS_P2;Temp;Humidity;BMP_temperature;BMP_pressure;BME280_temperature;BME280_humidity;BME280_pressure;Samples;Min_cycle;Max_cycle;Signal;HPM_P1;HPM_P2
2023/01/04 00:02:07;;;;;;;3.75;3.40;;;;;;;4.48;76.22;100330.44;1636810;86;20975;-86
2023/01/04 00:04:34;;;;;;;8.60;4.20;;;;;;;4.45;76.24;100324.17;1643048;86;20966;-81
2023/01/04 00:07:00;;;;;;;3.80;3.25;;;;;;;4.43;76.20;100323.53;1639910;86;22297;-84
2023/01/04 00:09:28;;;;;;;3.33;3.12;;;;;;;4.38;76.11;100329.44;1648097;86;20938;-83
2023/01/04 00:11:54;;;;;;;4.28;3.62;;;;;;;4.34;76.12;100320.20;1641413;86;20980;-78
2023/01/04 00:14:21;;;;;;;4.47;3.10;;;;;;;4.32;76.13;100330.21;1632859;86;20904;-82
2023/01/04 00:16:47;;;;;;;4.08;3.15;;;;;;;4.33;76.02;100345.18;1638406;86;21432;-82
2023/01/04 00:19:14;;;;;;;4.65;4.17;;;;;;;4.34;75.95;100334.84;1650402;86;21079;-85
2023/01/04 00:21:40;;;;;;;3.75;3.33;;;;;;;4.32;75.87;100352.84;1637965;86;20924;-86
2023/01/04 00:24:09;;;;;;;5.28;3.50;;;;;;;4.31;75.74;100336.58;1640772;86;20906;-86
2023/01/04 00:26:36;;;;;;;4.45;3.60;;;;;;;4.29;75.71;100331.11;1639189;86;20960;-83
2023/01/04 00:29:04;;;;;;;3.65;3.35;;;;;;;4.25;75.74;100338.67;1638700;86;20921;-82
2023/01/04 00:31:32;;;;;;;6.28;3.52;;;;;;;4.23;75.80;100339.36;1617535;86;21170;-82
2023/01/04 00:34:00;;;;;;;5.45;3.30;;;;;;;4.19;75.86;100335.95;1643570;86;20978;-88
2023/01/04 00:36:27;;;;;;;7.83;3.33;;;;;;;4.14;75.90;100340.52;1653179;86;20929;-82
2023/01/04 00:39:09;;;;;;;3.10;2.80;;;;;;;4.12;75.96;100335.08;1647682;86;21053;-87
2023/01/04 00:41:50;;;;;;;4.08;3.77;;;;;;;4.11;75.98;100334.26;1638427;86;20989;-87
2023/01/04 00:44:16;;;;;;;4.62;3.95;;;;;;;4.11;76.01;100344.08;1652574;86;21592;-82
2023/01/04 00:46:43;;;;;;;4.10;3.10;;;;;;;4.11;75.95;100342.24;1624194;86;21488;-86
2023/01/04 00:49:10;;;;;;;3.95;3.50;;;;;;;4.11;75.84;100342.24;1641929;86;20974;-85
2023/01/04 00:51:38;;;;;;;3.30;3.00;;;;;;;4.09;75.87;100344.26;1640212;86;21046;-81
2023/01/04 00:54:07;;;;;;;2.62;2.42;;;;;;;4.06;75.82;100351.81;1642410;86;20961;-80
2023/01/04 00:56:34;;;;;;;4.85;3.22;;;;;;;4.04;75.88;100343.19;1654365;86;21159;-78
2023/01/04 00:59:01;;;;;;;4.12;3.50;;;;;;;4.00;75.90;100349.91;1631019;86;20937;-78
2023/01/04 01:01:29;;;;;;;6.50;4.85;;;;;;;3.99;75.96;100339.77;1629528;86;20958;-79
2023/01/04 01:03:57;;;;;;;3.58;3.22;;;;;;;3.97;75.98;100336.99;1564212;90;21032;-79
2023/01/04 01:06:25;;;;;;;5.08;2.92;;;;;;;3.94;75.99;100348.33;1587968;89;21036;-81
2023/01/04 01:08:51;;;;;;;2.90;2.67;;;;;;;3.95;75.94;100327.86;1583149;87;21477;-80
2023/01/04 01:11:18;;;;;;;5.00;3.20;;;;;;;3.95;75.89;100326.53;1590561;89;20983;-77
2023/01/04 01:13:45;;;;;;;2.98;2.40;;;;;;;3.97;75.83;100329.02;1605551;89;20934;-79
2023/01/04 01:16:14;;;;;;;6.28;3.65;;;;;;;3.96;75.74;100338.83;1614496;87;20999;-78
2023/01/04 01:18:41;;;;;;;4.05;2.98;;;;;;;3.93;75.74;100339.22;1608866;89;20941;-78
2023/01/04 01:21:11;;;;;;;5.17;3.20;;;;;;;3.90;75.70;100338.25;1608700;89;21141;-80
2023/01/04 01:23:37;;;;;;;4.45;2.87;;;;;;;3.86;75.79;100336.98;1608775;89;20897;-81
2023/01/04 01:26:06;;;;;;;4.47;3.25;;;;;;;3.84;75.87;100369.10;1584318;89;20999;-80
2023/01/04 01:28:34;;;;;;;7.55;3.42;;;;;;;3.83;75.89;100337.39;1603958;89;21037;-80
2023/01/04 01:31:12;;;;;;;3.37;3.08;;;;;;;3.82;75.89;100343.71;1606932;89;21025;-78
2023/01/04 01:33:41;;;;;;;3.58;3.20;;;;;;;3.84;75.92;100340.34;1583542;89;21280;-80
2023/01/04 01:36:10;;;;;;;5.45;3.10;;;;;;;3.84;75.82;100329.69;1599769;88;21508;-80
2023/01/04 01:38:37;;;;;;;4.37;3.25;;;;;;;3.82;75.91;100329.91;1610976;88;20988;-78
2023/01/04 01:41:04;;;;;;;5.30;3.00;;;;;;;3.81;75.70;100332.75;1617771;88;20956;-83
2023/01/04 01:43:49;;;;;;;3.60;3.22;;;;;;;3.77;75.84;100338.96;1618239;88;21518;-82
2023/01/04 01:46:26;;;;;;;4.17;2.95;;;;;;;3.68;76.04;100341.94;1579007;88;21240;-81
2023/01/04 01:49:12;;;;;;;3.30;3.00;;;;;;;3.68;76.04;100341.94;1571626;88;21003;-80
2023/01/04 01:51:38;;;;;;;3.42;2.70;;;;;;;3.68;76.06;100337.44;1615735;88;20988;-80
2023/01/04 01:54:11;;;;;;;7.78;3.72;;;;;;;3.66;76.04;100338.13;1592927;88;21485;-82
2023/01/04 01:56:39;;;;;;;8.33;3.10;;;;;;;3.65;76.10;100339.13;1603078;88;20956;-81
2023/01/04 01:59:05;;;;;;;3.80;3.45;;;;;;;3.65;76.01;100319.69;1589802;89;21278;-82
2023/01/04 02:01:32;;;;;;;2.70;2.50;;;;;;;3.65;75.95;100304.55;1596380;88;20959;-80
2023/01/04 02:03:58;;;;;;;3.08;2.80;;;;;;;3.66;75.86;100324.83;1598219;88;20940;-82
2023/01/04 02:06:32;;;;;;;3.42;2.40;;;;;;;3.65;75.83;100313.86;1618972;88;21525;-81
2023/01/04 02:08:58;;;;;;;;;;;;;;;3.66;75.79;100316.02;1609541;88;20944;-77
2023/01/04 02:11:25;;;;;;;3.27;2.70;;;;;;;3.65;75.73;100306.38;1625649;86;21155;-77
2023/01/04 02:17:12;;;;;;;4.37;2.67;;;;;;;3.63;75.71;100306.59;1620735;86;20933;-78
2023/01/04 02:20:09;;;;;;;2.65;2.45;;;;;;;3.62;75.72;100317.41;1636012;86;20990;-80
2023/01/04 02:23:04;;;;;;;2.75;2.55;;;;;;;3.60;75.79;100318.13;1654294;86;20984;-80
2023/01/04 02:26:00;;;;;;;3.42;2.35;;;;;;;3.58;75.80;100308.17;1654696;86;21282;-79
2023/01/04 02:28:41;;;;;;;3.47;2.98;;;;;;;3.54;75.77;100307.73;1618761;86;20975;-79
2023/01/04 02:31:27;;;;;;;3.50;2.98;;;;;;;3.53;75.79;100306.08;1603447;89;21072;-77
2023/01/04 02:34:14;;;;;;;2.95;2.70;;;;;;;3.53;75.82;100318.05;1623720;87;20924;-80
2023/01/04 02:37:06;;;;;;;2.77;2.30;;;;;;;3.51;75.77;100302.27;1602560;89;20920;-78
2023/01/04 02:39:47;;;;;;;3.90;2.87;;;;;;;3.50;75.84;100304.61;1602407;89;21824;-78
2023/01/04 02:45:25;;;;;;;2.77;2.50;;;;;;;3.44;75.90;100316.52;1654945;85;20924;-80
2023/01/04 02:50:53;;;;;;;3.37;3.08;;;;;;;3.40;76.00;100305.95;1602870;86;21000;-78
2023/01/04 02:53:22;;;;;;;2.75;2.52;;;;;;;3.37;76.03;100314.28;1645029;86;21795;-83
2023/01/04 02:56:34;;;;;;;2.75;2.55;;;;;;;3.37;76.06;100315.61;1633452;87;21002;-80
2023/01/04 02:59:18;;;;;;;7.50;2.80;;;;;;;3.36;76.00;100320.10;1637919;87;20980;-81
2023/01/04 03:06:14;;;;;;;3.47;2.85;;;;;;;3.36;76.02;100288.20;1626910;88;20956;-81
2023/01/04 03:08:31;;;;;;;4.72;3.40;;;;;;;3.34;76.05;100302.70;1602974;89;21306;-81
2023/01/04 03:14:08;;;;;;;2.83;2.62;;;;;;;3.31;76.11;100309.74;1549828;91;21001;-83
2023/01/04 03:16:34;;;;;;;3.37;3.10;;;;;;;3.29;76.15;100307.77;1556160;90;21066;-81
2023/01/04 03:19:03;;;;;;;3.17;2.77;;;;;;;3.28;76.24;100304.78;1605234;85;20985;-82
2023/01/04 03:21:29;;;;;;;3.10;2.83;;;;;;;3.27;76.26;100301.80;1672031;85;21892;-83
2023/01/04 03:35:37;;;;;;;3.30;2.60;;;;;;;3.21;76.52;100307.88;1664737;85;21934;-78
2023/01/04 03:49:59;;;;;;;3.08;2.75;;;;;;;3.08;77.20;100316.50;1669099;86;21185;-83
2023/01/04 03:52:26;;;;;;;3.65;2.85;;;;;;;3.05;77.32;100313.73;1640287;85;20926;-81
2023/01/04 03:54:53;;;;;;;3.70;3.17;;;;;;;3.05;77.43;100308.91;1638487;85;20965;-79
2023/01/04 03:57:20;;;;;;;3.87;2.92;;;;;;;3.04;77.49;100304.61;1668135;85;21067;-76
2023/01/04 03:59:52;;;;;;;2.55;2.35;;;;;;;3.05;77.54;100299.61;1666668;85;21064;-80
2023/01/04 04:02:24;;;;;;;4.95;2.67;;;;;;;3.06;77.56;100305.25;1640682;87;21314;-80
2023/01/04 04:10:20;;;;;;;3.75;3.47;;;;;;;3.08;77.56;100313.84;1671859;85;20985;-79
2023/01/04 04:12:47;;;;;;;4.05;3.35;;;;;;;3.07;77.62;100321.49;1669294;85;20986;-76
2023/01/04 04:15:14;;;;;;;4.42;3.05;;;;;;;3.08;77.63;100317.83;1659529;85;21101;-78
2023/01/04 04:17:41;;;;;;;4.25;2.45;;;;;;;3.06;77.65;100319.87;1614860;87;20965;-80
2023/01/04 04:20:09;;;;;;;4.12;2.80;;;;;;;3.06;77.71;100319.87;1636224;87;20945;-78
2023/01/04 04:22:35;;;;;;;5.55;3.60;;;;;;;3.05;77.73;100304.43;1632374;87;20985;-79
2023/01/04 04:25:03;;;;;;;3.67;3.33;;;;;;;3.03;77.83;100305.11;1666061;85;20999;-78
2023/01/04 04:27:30;;;;;;;4.33;3.92;;;;;;;3.03;77.86;100306.94;1662887;86;21238;-79
2023/01/04 04:29:56;;;;;;;4.15;2.98;;;;;;;3.02;77.89;100322.59;1663415;85;20939;-76
2023/01/04 04:32:23;;;;;;;4.17;3.05;;;;;;;2.99;77.96;100313.13;1666904;85;21461;-78
2023/01/04 04:34:49;;;;;;;3.45;3.12;;;;;;;2.98;78.02;100302.69;1666125;84;21543;-76
2023/01/04 04:37:16;;;;;;;5.47;3.22;;;;;;;2.97;78.09;100325.77;1649956;85;20928;-77
2023/01/04 04:39:42;;;;;;;3.45;3.08;;;;;;;2.97;78.18;100317.80;1668942;85;21178;-79
2023/01/04 04:42:09;;;;;;;5.42;4.05;;;;;;;2.95;78.28;100314.52;1668814;85;20888;-78
2023/01/04 04:44:36;;;;;;;4.90;2.80;;;;;;;2.95;78.34;100315.02;1642208;86;20908;-79
2023/01/04 04:47:02;;;;;;;3.62;2.92;;;;;;;2.94;78.43;100323.49;1655352;85;20943;-80
2023/01/04 04:49:29;;;;;;;3.47;3.17;;;;;;;2.94;78.47;100324.82;1665353;85;21548;-79
2023/01/04 04:51:56;;;;;;;2.90;2.70;;;;;;;2.95;78.57;100329.63;1636334;87;21522;-81
2023/01/04 04:54:22;;;;;;;8.35;5.75;;;;;;;2.93;78.64;100323.17;1636330;87;20942;-78
2023/01/04 04:56:48;;;;;;;3.50;3.20;;;;;;;2.94;78.71;100335.95;1637543;85;20979;-79
2023/01/04 04:59:15;;;;;;;4.45;3.80;;;;;;;2.95;78.77;100324.32;1640311;85;21025;-75
2023/01/04 05:01:42;;;;;;;3.30;2.95;;;;;;;2.96;78.83;100329.96;1646024;85;21005;-78
2023/01/04 05:04:15;;;;;;;3.98;3.58;;;;;;;2.99;78.83;100338.37;1671944;85;21151;-77
2023/01/04 05:06:37;;;;;;;4.37;3.83;;;;;;;3.03;78.79;100340.16;1652063;86;20953;-77
2023/01/04 05:09:03;;;;;;;6.00;3.65;;;;;;;3.05;78.73;100338.15;1651650;86;20924;-78
2023/01/04 05:14:15;;;;;;;5.08;4.30;;;;;;;3.12;78.54;100339.03;1653995;86;20984;-80
2023/01/04 05:16:41;;;;;;;4.00;3.17;;;;;;;3.14;78.48;100358.30;1646147;86;21195;-84
2023/01/04 05:19:08;;;;;;;4.70;4.20;;;;;;;3.18;78.44;100352.09;1609224;89;20966;-81
2023/01/04 05:21:34;;;;;;;4.10;3.55;;;;;;;3.22;78.39;100336.09;1606059;87;21008;-81
2023/01/04 05:24:01;;;;;;;3.58;3.15;;;;;;;3.23;78.27;100334.58;1620789;88;20995;-77
2023/01/04 05:26:28;;;;;;;3.75;3.37;;;;;;;3.25;78.27;100333.08;1586746;87;21013;-81
2023/01/04 05:28:54;;;;;;;4.47;3.20;;;;;;;3.27;78.20;100337.18;1667333;86;21210;-80
2023/01/04 05:31:21;;;;;;;3.87;3.50;;;;;;;3.27;78.17;100346.48;1606223;89;21525;-80
2023/01/04 05:33:47;;;;;;;4.50;3.70;;;;;;;3.29;78.16;100344.48;1639353;87;20995;-84
2023/01/04 05:36:14;;;;;;;5.58;4.20;;;;;;;3.30;78.18;100343.47;1651609;86;21001;-81
2023/01/04 05:38:40;;;;;;;7.22;3.20;;;;;;;3.32;78.15;100341.94;1640271;86;21486;-83
2023/01/04 05:42:23;;;;;;;6.25;3.22;;;;;;;3.34;78.14;100339.92;1655259;86;21306;-79
2023/01/04 05:43:36;;;;;;;5.87;3.33;;;;;;;3.34;78.10;100337.27;1621392;86;21018;-79
2023/01/04 05:46:05;;;;;;;3.85;3.20;;;;;;;3.35;78.04;100341.08;1652648;86;21012;-78
2023/01/04 05:48:32;;;;;;;5.65;3.47;;;;;;;3.37;77.96;100341.70;1639394;86;20936;-80
2023/01/04 05:50:59;;;;;;;3.75;3.45;;;;;;;3.37;77.91;100335.55;1624185;86;20981;-78
2023/01/04 05:53:26;;;;;;;8.25;4.03;;;;;;;3.36;77.95;100340.05;1602541;89;21339;-79
2023/01/04 05:55:52;;;;;;;4.50;3.40;;;;;;;3.36;77.99;100344.03;1655420;86;20997;-79
2023/01/04 05:58:20;;;;;;;9.38;3.50;;;;;;;3.36;78.02;100345.36;1610549;86;20957;-83
2023/01/04 06:00:47;;;;;;;4.08;3.27;;;;;;;3.37;78.01;100339.04;1634696;86;21024;-86
2023/01/04 06:03:14;;;;;;;3.40;3.10;;;;;;;3.37;78.03;100343.53;1662251;86;21059;-81
2023/01/04 06:05:41;;;;;;;5.40;3.87;;;;;;;3.40;78.01;100340.02;1635123;87;21169;-82
2023/01/04 06:08:07;;;;;;;4.35;3.30;;;;;;;3.41;77.92;100344.80;1664679;86;20987;-84
2023/01/04 06:10:34;;;;;;;4.87;3.58;;;;;;;3.44;77.87;100337.80;1588456;87;20980;-91
2023/01/04 06:13:01;;;;;;;4.72;3.60;;;;;;;3.45;77.85;100345.56;1605639;89;21541;-86
2023/01/04 06:15:27;;;;;;;4.40;3.98;;;;;;;3.47;77.88;100344.88;1609389;87;20927;-87
2023/01/04 06:17:53;;;;;;;4.30;3.75;;;;;;;3.48;77.86;100366.48;1631597;87;21050;-89
2023/01/04 06:20:20;;;;;;;4.10;3.70;;;;;;;3.49;77.89;100343.38;1630354;87;20948;-88
2023/01/04 06:22:46;;;;;;;4.95;3.80;;;;;;;3.48;77.93;100367.81;1607477;89;20948;-87
2023/01/04 06:25:13;;;;;;;3.58;3.10;;;;;;;3.48;77.94;100377.12;1607499;87;20925;-84
2023/01/04 06:27:40;;;;;;;4.62;4.17;;;;;;;3.51;77.97;100362.61;1583121;90;20962;-75
2023/01/04 06:30:07;;;;;;;6.00;4.50;;;;;;;3.53;77.99;100377.89;1596239;89;21263;-78
2023/01/04 06:32:34;;;;;;;5.37;3.55;;;;;;;3.56;77.92;100376.17;1595880;88;21030;-81
2023/01/04 06:35:01;;;;;;;3.98;3.60;;;;;;;3.59;77.89;100373.66;1610127;87;20988;-81
2023/01/04 06:37:27;;;;;;;3.98;3.40;;;;;;;3.61;77.82;100380.42;1632134;87;21007;-82
2023/01/04 06:39:54;;;;;;;7.78;3.83;;;;;;;3.64;77.74;100372.59;1636527;87;20995;-89
2023/01/04 06:45:10;;;;;;;5.92;5.28;;;;;;;3.67;77.43;100377.52;1625721;87;20988;-83
2023/01/04 06:47:37;;;;;;;6.20;4.03;;;;;;;3.70;77.55;100387.77;1635535;87;21489;-82
2023/01/04 06:50:04;;;;;;;4.90;3.85;;;;;;;3.68;77.57;100392.48;1632036;87;21064;-83
2023/01/04 06:52:31;;;;;;;7.22;3.85;;;;;;;3.63;77.62;100388.22;1588070;87;20943;-83
2023/01/04 06:54:57;;;;;;;4.12;3.10;;;;;;;3.66;77.71;100398.47;1611301;87;21766;-85
2023/01/04 06:57:24;;;;;;;6.80;5.00;;;;;;;3.68;77.77;100399.95;1608480;89;21435;-84
2023/01/04 06:59:52;;;;;;;4.50;3.40;;;;;;;3.72;77.80;100402.55;1634692;86;20974;-87
2023/01/04 07:02:18;;;;;;;7.37;3.95;;;;;;;3.77;77.73;100390.84;1615684;87;20975;-80
2023/01/04 07:04:45;;;;;;;4.83;4.00;;;;;;;3.87;77.79;100394.52;1628126;87;20940;-84
2023/01/04 07:07:12;;;;;;;7.33;3.87;;;;;;;3.87;77.79;100394.52;1641171;86;21303;-87
2023/01/04 07:09:38;;;;;;;4.28;3.42;;;;;;;3.90;77.22;100394.13;1623104;88;21525;-85
2023/01/04 07:12:05;;;;;;;5.92;3.98;;;;;;;3.91;77.28;100402.44;1584040;89;21476;-85
2023/01/04 07:14:35;;;;;;;4.67;3.40;;;;;;;3.91;77.28;100402.44;1637139;87;21461;-86
2023/01/04 07:17:02;;;;;;;5.22;3.10;;;;;;;3.90;77.24;100412.26;1640542;87;20939;-83
2023/01/04 07:19:28;;;;;;;7.45;3.67;;;;;;;3.90;77.26;100402.11;1608018;89;21205;-83
2023/01/04 07:21:54;;;;;;;4.47;3.50;;;;;;;3.89;77.38;100413.27;1585262;90;21065;-84
2023/01/04 07:24:21;;;;;;;4.83;4.40;;;;;;;3.91;77.60;100397.12;1611846;87;20919;-81
2023/01/04 07:26:48;;;;;;;3.92;3.65;;;;;;;3.91;77.60;100397.12;1639072;87;20980;-84
2023/01/04 07:29:15;;;;;;;4.85;3.75;;;;;;;3.95;77.48;100407.70;1639444;87;21164;-82
2023/01/04 07:31:48;;;;;;;4.62;3.85;;;;;;;3.98;77.42;100411.30;1607334;87;21190;-86
2023/01/04 07:34:16;;;;;;;5.65;3.77;;;;;;;4.00;77.46;100419.93;1614333;87;21521;-83
2023/01/04 07:36:43;;;;;;;4.20;3.80;;;;;;;4.01;77.39;100423.42;1660759;86;21476;-85
2023/01/04 07:39:11;;;;;;;5.80;3.85;;;;;;;3.99;77.48;100411.62;1667663;86;20979;-86
2023/01/04 07:41:38;;;;;;;4.92;4.15;;;;;;;3.97;77.57;100420.32;1667646;84;21521;-84
2023/01/04 07:44:05;;;;;;;6.95;4.12;;;;;;;3.97;77.73;100416.33;1666581;86;21776;-87
2023/01/04 07:46:34;;;;;;;4.22;3.40;;;;;;;3.98;77.82;100417.95;1665051;86;20940;-82
2023/01/04 07:49:01;;;;;;;4.03;3.67;;;;;;;4.00;77.85;100426.59;1660950;86;20984;-83
2023/01/04 07:51:31;;;;;;;4.20;3.10;;;;;;;4.02;77.88;100422.41;1663839;85;20916;-81
2023/01/04 07:53:58;;;;;;;6.15;3.90;;;;;;;4.06;77.83;100431.16;1666396;85;20932;-83
2023/01/04 07:56:24;;;;;;;6.55;4.00;;;;;;;4.12;77.83;100432.25;1659387;86;21213;-82
2023/01/04 07:58:57;;;;;;;6.08;3.55;;;;;;;4.13;77.76;100435.20;1646275;86;20973;-83
2023/01/04 08:01:25;;;;;;;6.60;3.77;;;;;;;4.12;77.74;100425.09;1665754;86;26322;-83
2023/01/04 08:03:53;;;;;;;6.97;4.60;;;;;;;4.12;77.80;100422.93;1660443;86;21535;-86
2023/01/04 08:06:20;;;;;;;4.42;3.70;;;;;;;4.12;77.90;100421.09;1641055;86;20979;-87
2023/01/04 08:08:46;;;;;;;6.30;3.70;;;;;;;4.13;77.95;100417.89;1662219;86;21935;-88
2023/01/04 08:11:16;;;;;;;8.95;3.45;;;;;;;4.13;77.98;100419.23;1632053;87;20978;-87
2023/01/04 08:13:42;;;;;;;4.00;3.55;;;;;;;4.15;78.06;100423.36;1610254;89;21000;-83
2023/01/04 08:16:23;;;;;;;5.47;3.77;;;;;;;4.19;78.06;100424.63;1609949;89;20996;-82
2023/01/04 08:18:56;;;;;;;4.25;3.70;;;;;;;4.25;78.02;100435.03;1610980;89;21465;-80
2023/01/04 08:21:24;;;;;;;5.10;4.03;;;;;;;4.28;78.00;100431.47;1599271;89;21193;-83
2023/01/04 08:23:52;;;;;;;4.95;3.80;;;;;;;4.36;77.87;100437.98;1565544;89;20919;-84
2023/01/04 08:26:24;;;;;;;7.12;4.05;;;;;;;4.38;77.58;100433.30;1596158;86;20960;-83
2023/01/04 08:28:50;;;;;;;4.47;3.83;;;;;;;4.39;77.46;100434.95;1598892;89;20944;-81
2023/01/04 08:31:21;;;;;;;6.20;4.60;;;;;;;4.36;77.50;100436.66;1587411;89;21593;-88
2023/01/04 08:33:48;;;;;;;6.90;4.87;;;;;;;4.36;77.49;100446.51;1586997;89;21532;-86
2023/01/04 08:36:26;;;;;;;4.87;3.90;;;;;;;4.34;77.54;100450.69;1583383;89;21012;-87
2023/01/04 08:38:59;;;;;;;9.45;4.90;;;;;;;4.34;77.63;100447.19;1598095;89;20995;-80
2023/01/04 08:41:25;;;;;;;9.15;5.08;;;;;;;4.35;77.74;100441.69;1580480;89;21028;-79
2023/01/04 08:43:52;;;;;;;5.47;4.20;;;;;;;4.37;77.89;100453.45;1580330;90;20921;-85
2023/01/04 08:46:18;;;;;;;6.97;4.03;;;;;;;4.38;78.47;100469.76;1585574;89;21783;-84
2023/01/04 08:48:45;;;;;;;3.92;3.50;;;;;;;4.34;79.64;100495.13;1604449;89;20984;-83
2023/01/04 08:51:15;;;;;;;6.17;3.70;;;;;;;4.27;80.26;100473.75;1609629;89;21408;-81
2023/01/04 08:53:42;;;;;;;4.50;4.10;;;;;;;4.19;81.21;100482.37;1610639;89;21460;-84
2023/01/04 08:56:11;;;;;;;5.30;4.10;;;;;;;4.05;82.91;100485.40;1608389;89;20952;-81
2023/01/04 08:58:37;;;;;;;4.12;3.50;;;;;;;3.97;83.28;100457.58;1604895;89;20935;-85
2023/01/04 09:01:09;;;;;;;6.75;4.67;;;;;;;3.88;84.83;100468.85;1586218;89;21011;-86
2023/01/04 09:03:36;;;;;;;4.28;3.98;;;;;;;3.83;85.41;100461.11;1584270;89;21521;-84
2023/01/04 09:06:08;;;;;;;7.75;4.03;;;;;;;3.78;86.24;100467.49;1580632;89;21545;-86
2023/01/04 09:08:36;;;;;;;5.20;4.00;;;;;;;3.72;87.03;100466.90;1594003;89;21516;-79
2023/01/04 09:11:06;;;;;;;4.75;3.92;;;;;;;3.66;87.63;100464.97;1589571;87;21295;-79
2023/01/04 09:13:33;;;;;;;4.08;3.67;;;;;;;3.65;88.18;100469.47;1582251;89;20945;-79
2023/01/04 09:16:05;;;;;;;3.75;3.20;;;;;;;3.65;88.49;100464.65;1574457;90;21466;-83
2023/01/04 09:18:32;;;;;;;3.25;2.95;;;;;;;3.65;88.93;100465.98;1583401;88;21909;-83
2023/01/04 09:21:03;;;;;;;3.35;2.98;;;;;;;3.64;89.73;100461.70;1610742;88;21028;-84
2023/01/04 09:23:30;;;;;;;6.33;3.75;;;;;;;3.65;90.05;100461.98;1594801;90;21268;-86
2023/01/04 09:25:56;;;;;;;6.05;4.25;;;;;;;3.63;90.28;100464.86;1595864;90;20980;-87
2023/01/04 09:28:23;;;;;;;5.37;3.60;;;;;;;3.64;90.65;100456.38;1595552;88;20999;-84
2023/01/04 09:30:49;;;;;;;5.05;3.60;;;;;;;3.64;91.06;100461.70;1615407;88;20909;-83
2023/01/04 09:33:16;;;;;;;4.87;4.35;;;;;;;3.58;91.50;100461.09;1606721;88;20976;-82
2023/01/04 09:35:43;;;;;;;3.90;3.55;;;;;;;3.58;91.50;100461.09;1597694;89;22186;-81
2023/01/04 09:38:09;;;;;;;6.62;5.28;;;;;;;3.59;91.72;100461.42;1600357;89;20989;-75
2023/01/04 09:41:06;;;;;;;6.80;3.60;;;;;;;3.61;92.07;100471.36;1619471;87;20924;-80
2023/01/04 09:43:48;;;;;;;5.12;4.30;;;;;;;3.65;92.60;100447.36;1579766;88;21976;-78
2023/01/04 09:46:40;;;;;;;6.05;4.10;;;;;;;3.65;92.60;100447.36;1571026;90;21000;-84
2023/01/04 09:49:30;;;;;;;4.53;4.05;;;;;;;3.68;92.82;100449.66;1605995;88;21262;-85
2023/01/04 09:52:13;;;;;;;5.65;3.90;;;;;;;3.68;92.97;100445.67;1523255;91;21580;-86
2023/01/04 09:54:56;;;;;;;4.53;4.10;;;;;;;3.69;93.04;100442.02;1575074;89;20917;-81
2023/01/04 09:57:40;;;;;;;5.15;3.47;;;;;;;3.71;93.22;100449.28;1572692;90;20936;-85
2023/01/04 10:00:18;;;;;;;5.37;3.90;;;;;;;3.71;93.33;100444.78;1618878;88;20894;-91
2023/01/04 10:02:59;;;;;;;5.22;4.15;;;;;;;3.74;93.42;100443.61;1591132;90;21168;-82
2023/01/04 10:05:27;;;;;;;6.30;3.83;;;;;;;3.81;93.79;100440.00;1549674;90;20940;-83
2023/01/04 10:07:54;;;;;;;7.12;3.60;;;;;;;3.84;93.49;100432.95;1566680;90;21088;-81
2023/01/04 10:10:27;;;;;;;5.10;3.87;;;;;;;3.84;93.49;100432.95;1572731;89;26260;-80
2023/01/04 10:13:14;;;;;;;3.77;3.37;;;;;;;3.87;93.19;100425.95;1616426;87;22049;-85
2023/01/04 10:16:11;;;;;;;4.17;2.95;;;;;;;3.87;93.19;100425.95;1622480;87;21756;-84
2023/01/04 10:19:18;;;;;;;4.55;3.10;;;;;;;3.90;92.98;100424.23;1601319;88;21506;-85
2023/01/04 10:22:00;;;;;;;5.03;3.02;;;;;;;3.91;92.65;100424.56;1610973;88;20944;-82
2023/01/04 10:24:47;;;;;;;4.70;3.02;;;;;;;3.96;92.63;100423.98;1593752;90;21529;-82
2023/01/04 10:27:22;;;;;;;6.22;3.42;;;;;;;4.01;92.51;100418.09;1568100;90;20931;-80
2023/01/04 10:30:00;;;;;;;6.05;3.02;;;;;;;4.03;91.16;100428.06;1593944;88;21938;-80
2023/01/04 10:32:39;;;;;;;3.65;2.95;;;;;;;3.98;90.05;100420.61;1610369;88;21521;-80
2023/01/04 10:35:22;;;;;;;4.20;2.50;;;;;;;3.98;90.05;100420.61;1601809;88;20995;-81
2023/01/04 10:37:55;;;;;;;2.95;2.70;;;;;;;4.01;89.76;100426.08;1591867;88;20903;-81
2023/01/04 10:40:22;;;;;;;3.77;3.37;;;;;;;4.01;89.25;100413.59;1591382;88;21010;-88
2023/01/04 10:43:14;;;;;;;2.58;2.37;;;;;;;4.04;89.11;100411.05;1625898;87;21899;-88
2023/01/04 10:46:05;;;;;;;6.20;2.65;;;;;;;4.11;89.10;100407.97;1629226;87;21485;-93
2023/01/04 10:48:40;;;;;;;2.20;2.00;;;;;;;4.16;88.12;100397.57;1635038;87;20931;-86
2023/01/04 10:51:06;;;;;;;2.33;2.12;;;;;;;4.20;87.22;100408.15;1640645;87;21140;-81
2023/01/04 10:53:46;;;;;;;3.10;2.80;;;;;;;4.20;86.32;100420.13;1641203;87;21030;-83
2023/01/04 10:56:23;;;;;;;4.03;2.05;;;;;;;4.17;86.27;100413.33;1623849;86;21251;-79
2023/01/04 10:59:03;;;;;;;2.77;1.80;;;;;;;4.16;85.36;100419.70;1628648;87;20971;-81
2023/01/04 11:01:50;;;;;;;1.70;1.60;;;;;;;4.16;85.36;100419.70;1630508;87;21970;-84
2023/01/04 11:04:40;;;;;;;2.15;2.00;;;;;;;4.19;85.65;100417.14;1596268;89;21490;-86
2023/01/04 11:07:25;;;;;;;2.92;1.92;;;;;;;4.27;85.76;100416.50;1595430;88;21029;-76
2023/01/04 11:10:05;;;;;;;2.80;2.10;;;;;;;4.36;85.49;100415.34;1611335;87;21805;-77
2023/01/04 11:12:32;;;;;;;2.10;1.72;;;;;;;4.44;85.04;100430.89;1586639;88;21483;-80
2023/01/04 11:15:00;;;;;;;1.67;1.57;;;;;;;4.47;84.23;100419.84;1595817;90;20901;-77
2023/01/04 11:17:27;;;;;;;2.02;1.65;;;;;;;4.45;83.36;100418.72;1601517;88;21069;-73
2023/01/04 11:19:54;;;;;;;2.15;1.90;;;;;;;4.41;83.08;100416.14;1587687;88;20953;-76
2023/01/04 11:22:39;;;;;;;2.12;1.70;;;;;;;4.37;83.00;100428.98;1601874;88;21210;-80
2023/01/04 11:25:13;;;;;;;1.72;1.62;;;;;;;4.33;82.28;100429.56;1582242;88;21467;-79
2023/01/04 11:28:00;;;;;;;2.70;1.67;;;;;;;4.27;82.19;100420.49;1577315;90;20932;-79
2023/01/04 11:31:04;;;;;;;2.87;2.00;;;;;;;4.21;81.87;100431.10;1626847;87;20924;-87
2023/01/04 11:33:33;;;;;;;2.90;2.33;;;;;;;4.14;81.75;100408.91;1563068;89;21105;-90
2023/01/04 11:36:01;;;;;;;4.60;1.75;;;;;;;4.11;81.88;100418.61;1585714;89;21109;-92
2023/01/04 11:38:29;;;;;;;3.33;2.20;;;;;;;4.11;82.00;100411.95;1601390;89;20980;-86
2023/01/04 11:41:06;;;;;;;2.12;1.90;;;;;;;4.12;81.43;100429.08;1606175;88;21009;-80
2023/01/04 11:43:34;;;;;;;2.65;2.12;;;;;;;4.14;81.15;100405.73;1578132;90;20959;-90
2023/01/04 11:46:25;;;;;;;3.42;2.40;;;;;;;4.20;81.22;100400.16;1562519;91;20964;-82
2023/01/04 11:48:52;;;;;;;3.30;1.90;;;;;;;4.30;80.84;100417.47;1611283;88;21306;-82
2023/01/04 11:51:32;;;;;;;1.47;1.30;;;;;;;4.31;78.88;100406.31;1592888;89;20940;-85
2023/01/04 11:54:34;;;;;;;2.17;1.50;;;;;;;4.30;78.12;100410.81;1606387;88;21834;-87
2023/01/04 11:57:11;;;;;;;2.05;1.30;;;;;;;4.28;76.87;100408.01;1614303;88;20961;-85
2023/01/04 11:59:37;;;;;;;1.60;1.50;;;;;;;4.23;75.95;100417.91;1580735;89;21067;-80
2023/01/04 12:02:23;;;;;;;2.30;1.47;;;;;;;4.19;75.96;100430.45;1577461;90;21151;-80
2023/01/04 12:04:51;;;;;;;1.67;1.50;;;;;;;4.16;75.40;100426.34;1616982;87;20964;-85
2023/01/04 12:07:32;;;;;;;1.32;1.22;;;;;;;4.15;74.94;100419.87;1571390;90;21462;-73
2023/01/04 12:10:01;;;;;;;1.20;1.10;;;;;;;4.16;75.02;100422.36;1572082;90;20913;-75
2023/01/04 12:12:31;;;;;;;1.20;1.20;;;;;;;4.16;74.04;100433.00;1614325;87;21469;-77
2023/01/04 12:15:01;;;;;;;1.15;0.98;;;;;;;4.16;74.18;100417.03;1621288;87;21720;-79
2023/01/04 12:17:41;;;;;;;1.97;1.30;;;;;;;4.17;74.42;100420.52;1606141;88;20943;-80
2023/01/04 12:20:14;;;;;;;4.05;2.10;;;;;;;4.17;74.80;100408.00;1631649;88;21057;-81
2023/01/04 12:22:43;;;;;;;2.20;1.98;;;;;;;4.18;74.86;100413.66;1631381;88;20981;-82
2023/01/04 12:25:41;;;;;;;1.37;1.27;;;;;;;4.16;74.94;100414.38;1622192;87;20940;-79
2023/01/04 12:28:40;;;;;;;2.30;2.10;;;;;;;4.15;75.02;100412.71;1631477;88;21511;-83
2023/01/04 12:31:25;;;;;;;2.90;1.67;;;;;;;4.14;75.28;100419.55;1629442;87;20992;-83
2023/01/04 12:33:56;;;;;;;2.65;1.47;;;;;;;4.14;75.48;100412.89;1604435;87;21011;-80
2023/01/04 12:36:43;;;;;;;6.17;1.80;;;;;;;4.16;75.80;100411.70;1611791;88;21445;-81
2023/01/04 12:39:21;;;;;;;1.65;1.55;;;;;;;4.19;75.73;100415.31;1598028;88;21630;-84
2023/01/04 12:42:02;;;;;;;2.17;1.98;;;;;;;4.22;75.63;100417.58;1560564;90;21136;-90
2023/01/04 12:44:50;;;;;;;2.40;1.65;;;;;;;4.22;75.45;100420.23;1622664;87;20968;-80
2023/01/04 12:50:23;;;;;;;1.85;1.37;;;;;;;4.19;74.95;100429.12;1571483;90;21023;-80